createdAt,value
2019-05-23T00:01:25.231Z,14.00
2019-05-23T00:03:53.260Z,14.00
2019-05-23T00:06:23.773Z,13.90
2019-05-23T00:08:52.796Z,13.90
2019-05-23T00:11:29.368Z,13.90
2019-05-23T00:13:59.661Z,13.90
2019-05-23T00:16:27.641Z,13.80
2019-05-23T00:18:57.612Z,13.90
2019-05-23T00:21:26.733Z,13.90
2019-05-23T00:23:55.814Z,13.90
2019-05-23T00:26:24.544Z,13.90
2019-05-23T00:29:09.002Z,14.00
2019-05-23T00:31:32.986Z,14.10
2019-05-23T00:34:02.044Z,14.10
2019-05-23T00:36:31.549Z,14.10
2019-05-23T00:39:00.410Z,14.10
2019-05-23T00:41:29.736Z,14.10
2019-05-23T00:43:58.774Z,14.10
2019-05-23T00:46:28.069Z,14.10
2019-05-23T00:48:56.894Z,14.10
2019-05-23T00:51:26.156Z,14.10
2019-05-23T00:53:55.079Z,14.10
2019-05-23T00:56:25.035Z,14.10
2019-05-23T00:58:54.518Z,14.10
2019-05-23T01:01:24.022Z,14.10
2019-05-23T01:03:53.148Z,14.00
2019-05-23T01:06:22.742Z,14.00
2019-05-23T01:08:53.308Z,14.00
2019-05-23T01:11:22.039Z,14.00
2019-05-23T01:13:51.039Z,14.00
2019-05-23T01:16:21.700Z,14.00
2019-05-23T01:18:49.975Z,14.00
2019-05-23T01:21:36.432Z,14.00
2019-05-23T01:24:23.282Z,14.00
2019-05-23T01:26:53.646Z,13.90
2019-05-23T01:29:22.509Z,13.90
2019-05-23T01:31:52.882Z,13.80
2019-05-23T01:34:22.225Z,13.80
2019-05-23T01:36:51.377Z,13.80
2019-05-23T01:39:20.776Z,13.80
2019-05-23T01:41:49.502Z,13.70
2019-05-23T01:44:18.811Z,13.70
2019-05-23T01:46:47.530Z,13.70
2019-05-23T01:49:16.268Z,13.60
2019-05-23T01:51:45.315Z,13.60
2019-05-23T01:54:14.037Z,13.60
2019-05-23T01:56:43.482Z,13.60
2019-05-23T01:59:13.521Z,13.50
2019-05-23T02:01:42.311Z,13.50
2019-05-23T02:04:11.115Z,13.50
2019-05-23T02:06:40.036Z,13.50
2019-05-23T02:09:09.579Z,13.50
2019-05-23T02:11:39.247Z,13.40
2019-05-23T02:14:08.189Z,13.50
2019-05-23T02:16:37.528Z,13.50
2019-05-23T02:19:06.278Z,13.30
2019-05-23T02:21:36.110Z,13.40
2019-05-23T02:24:05.549Z,13.50
2019-05-23T02:26:37.183Z,13.50
2019-05-23T02:29:06.520Z,13.50
2019-05-23T02:31:35.319Z,13.60
2019-05-23T02:34:04.354Z,13.50
2019-05-23T02:36:34.604Z,13.60
2019-05-23T02:39:04.938Z,13.50
2019-05-23T02:41:38.146Z,13.50
2019-05-23T02:44:20.068Z,13.50
2019-05-23T02:46:50.363Z,13.50
2019-05-23T02:49:20.677Z,13.50
2019-05-23T02:51:50.182Z,13.50
2019-05-23T02:54:20.238Z,13.50
2019-05-23T02:56:50.057Z,13.50
2019-05-23T02:59:38.019Z,13.40
2019-05-23T03:02:27.850Z,13.40
2019-05-23T03:04:57.080Z,13.40
2019-05-23T03:07:27.892Z,13.50
2019-05-23T03:09:56.615Z,13.50
2019-05-23T03:12:26.943Z,13.40
2019-05-23T03:14:57.092Z,13.50
2019-05-23T03:17:27.324Z,13.40
2019-05-23T03:19:59.922Z,13.40
2019-05-23T03:22:58.937Z,13.40
2019-05-23T03:25:39.842Z,13.50
2019-05-23T03:28:09.854Z,13.50
2019-05-23T03:30:40.360Z,13.40
2019-05-23T03:33:10.696Z,13.40
2019-05-23T03:35:50.155Z,13.40
2019-05-23T03:38:19.294Z,13.30
2019-05-23T03:40:48.054Z,13.40
2019-05-23T03:43:16.888Z,13.40
2019-05-23T03:45:47.256Z,13.30
2019-05-23T03:48:16.080Z,13.30
2019-05-23T03:50:46.379Z,13.40
2019-05-23T03:53:15.200Z,13.50
2019-05-23T03:55:45.545Z,13.60
2019-05-23T03:58:14.579Z,13.60
2019-05-23T04:00:45.247Z,13.60
2019-05-23T04:03:13.240Z,13.50
2019-05-23T04:05:42.968Z,13.50
2019-05-23T04:08:12.552Z,13.40
2019-05-23T04:10:41.376Z,13.50
2019-05-23T04:13:10.690Z,13.50
2019-05-23T04:15:39.561Z,13.40
2019-05-23T04:18:08.292Z,13.40
2019-05-23T04:20:37.070Z,13.40
2019-05-23T04:23:06.027Z,13.40
2019-05-23T04:25:34.725Z,13.40
2019-05-23T04:28:03.463Z,13.40
2019-05-23T04:30:32.251Z,13.40
2019-05-23T04:33:00.967Z,13.40
2019-05-23T04:35:29.846Z,13.50
2019-05-23T04:37:59.038Z,13.50
2019-05-23T04:40:28.279Z,13.60
2019-05-23T04:42:57.153Z,13.60
2019-05-23T04:45:25.928Z,13.60
2019-05-23T04:47:54.878Z,13.70
2019-05-23T04:50:23.994Z,13.70
2019-05-23T04:52:53.822Z,13.70
2019-05-23T04:55:22.512Z,13.80
2019-05-23T04:57:52.333Z,13.80
2019-05-23T05:00:22.636Z,13.80
2019-05-23T05:02:51.335Z,13.90
2019-05-23T05:05:20.810Z,13.90
2019-05-23T05:07:49.518Z,14.00
2019-05-23T05:10:20.689Z,14.10
2019-05-23T05:12:49.466Z,14.10
2019-05-23T05:15:18.169Z,14.20
2019-05-23T05:17:46.932Z,14.20
2019-05-23T05:20:15.654Z,14.30
2019-05-23T05:22:44.433Z,14.30
2019-05-23T05:25:13.592Z,14.30
2019-05-23T05:27:42.420Z,14.40
2019-05-23T05:30:11.125Z,14.40
2019-05-23T05:32:44.537Z,14.40
2019-05-23T05:35:10.404Z,14.50
2019-05-23T05:37:39.216Z,14.50
2019-05-23T05:40:08.326Z,14.50
2019-05-23T05:42:38.091Z,14.50
2019-05-23T05:45:08.226Z,14.50
2019-05-23T05:47:37.407Z,14.50
2019-05-23T05:50:07.893Z,14.50
2019-05-23T05:52:37.764Z,14.60
2019-05-23T05:55:08.187Z,14.60
2019-05-23T05:57:37.129Z,14.60
2019-05-23T06:00:12.641Z,14.60
2019-05-23T06:02:39.204Z,14.60
2019-05-23T06:05:09.598Z,14.60
2019-05-23T06:07:40.000Z,14.60
2019-05-23T06:10:10.509Z,14.70
2019-05-23T06:12:39.314Z,14.60
2019-05-23T06:15:08.634Z,14.60
2019-05-23T06:17:37.769Z,14.60
2019-05-23T06:20:06.878Z,14.50
2019-05-23T06:22:35.690Z,14.60
2019-05-23T06:25:06.296Z,14.50
2019-05-23T06:27:34.291Z,14.50
2019-05-23T06:30:03.562Z,14.50
2019-05-23T06:32:32.673Z,14.50
2019-05-23T06:35:01.399Z,14.50
2019-05-23T06:37:34.213Z,14.50
2019-05-23T06:40:02.255Z,14.40
2019-05-23T06:42:30.992Z,14.50
2019-05-23T06:44:59.986Z,14.50
2019-05-23T06:47:28.686Z,14.50
2019-05-23T06:49:57.486Z,14.50
2019-05-23T06:52:26.205Z,14.60
2019-05-23T06:54:54.970Z,14.70
2019-05-23T06:57:24.408Z,14.70
2019-05-23T06:59:53.136Z,14.70
2019-05-23T07:02:22.255Z,14.80
2019-05-23T07:04:51.006Z,14.90
2019-05-23T07:07:20.019Z,14.90
2019-05-23T07:09:48.735Z,15.00
2019-05-23T07:12:17.644Z,15.10
2019-05-23T07:14:46.364Z,15.10
2019-05-23T07:17:15.796Z,15.20
2019-05-23T07:19:44.616Z,15.20
2019-05-23T07:22:13.349Z,15.20
2019-05-23T07:24:56.825Z,15.10
2019-05-23T07:27:12.941Z,15.20
2019-05-23T07:29:41.760Z,15.40
2019-05-23T07:32:10.741Z,15.60
2019-05-23T07:34:39.476Z,15.80
2019-05-23T07:37:08.218Z,15.90
2019-05-23T07:39:37.037Z,16.10
2019-05-23T07:42:06.317Z,16.20
2019-05-23T07:44:47.881Z,16.40
2019-05-23T07:47:07.426Z,16.50
2019-05-23T07:49:36.128Z,16.60
2019-05-23T07:52:04.871Z,16.60
2019-05-23T07:54:35.471Z,16.70
2019-05-23T07:57:05.045Z,16.80
2019-05-23T07:59:34.465Z,16.90
2019-05-23T08:02:07.966Z,16.90
2019-05-23T08:04:36.720Z,17.00
2019-05-23T08:07:06.424Z,17.10
2019-05-23T08:09:35.217Z,17.10
2019-05-23T08:12:04.021Z,17.10
2019-05-23T08:14:33.250Z,17.20
2019-05-23T08:17:02.030Z,17.30
2019-05-23T08:19:30.745Z,17.50
2019-05-23T08:21:59.544Z,17.70
2019-05-23T08:24:28.435Z,17.90
2019-05-23T08:26:58.115Z,18.10
2019-05-23T08:29:27.144Z,18.40
2019-05-23T08:31:55.974Z,18.70
2019-05-23T08:34:39.850Z,18.80
2019-05-23T08:36:55.665Z,18.60
2019-05-23T08:39:25.380Z,18.60
2019-05-23T08:41:54.240Z,18.60
2019-05-23T08:44:23.240Z,18.50
2019-05-23T08:46:51.991Z,18.60
2019-05-23T08:49:21.097Z,18.70
2019-05-23T08:51:50.112Z,18.70
2019-05-23T08:54:18.875Z,18.70
2019-05-23T08:56:50.751Z,18.60
2019-05-23T08:59:19.466Z,18.50
2019-05-23T09:01:48.205Z,18.50
2019-05-23T09:04:16.904Z,18.50
2019-05-23T09:06:45.628Z,18.40
2019-05-23T09:09:29.312Z,18.40
2019-05-23T09:11:46.065Z,18.40
2019-05-23T09:14:15.228Z,18.30
2019-05-23T09:16:44.059Z,18.30
2019-05-23T09:19:12.793Z,18.20
2019-05-23T09:21:41.619Z,18.30
2019-05-23T09:24:11.046Z,18.30
2019-05-23T09:26:39.854Z,18.20
2019-05-23T09:29:09.259Z,18.20
2019-05-23T09:31:38.254Z,18.30
2019-05-23T09:34:06.993Z,18.30
2019-05-23T09:36:35.711Z,18.20
2019-05-23T09:39:07.881Z,18.30
2019-05-23T09:41:37.121Z,18.30
2019-05-23T09:44:06.565Z,18.30
2019-05-23T09:46:35.285Z,18.40
2019-05-23T09:49:04.010Z,18.30
2019-05-23T09:51:32.740Z,18.40
2019-05-23T09:54:01.509Z,18.40
2019-05-23T09:56:30.423Z,18.50
2019-05-23T09:58:59.175Z,18.40
2019-05-23T10:01:28.073Z,18.50
2019-05-23T10:03:56.837Z,18.50
2019-05-23T10:06:25.579Z,18.60
2019-05-23T10:08:54.416Z,18.70
2019-05-23T10:11:23.115Z,18.80
2019-05-23T10:13:51.857Z,19.00
2019-05-23T10:16:20.581Z,19.00
2019-05-23T10:18:49.301Z,19.20
2019-05-23T10:21:18.044Z,19.30
2019-05-23T10:23:46.784Z,19.40
2019-05-23T10:26:15.858Z,19.50
2019-05-23T10:28:44.631Z,19.40
2019-05-23T10:31:14.486Z,19.50
2019-05-23T10:33:43.182Z,19.40
2019-05-23T10:36:11.904Z,19.30
2019-05-23T10:38:40.641Z,19.30
2019-05-23T10:41:09.367Z,19.30
2019-05-23T10:43:38.096Z,19.40
2019-05-23T10:46:06.885Z,19.30
2019-05-23T10:48:36.001Z,19.20
2019-05-23T10:51:05.655Z,19.30
2019-05-23T10:53:34.368Z,19.30
2019-05-23T10:56:03.130Z,19.20
2019-05-23T10:58:32.218Z,19.10
2019-05-23T11:01:00.953Z,19.20
2019-05-23T11:03:31.055Z,19.20
2019-05-23T11:06:13.322Z,19.00
2019-05-23T11:08:30.679Z,19.20
2019-05-23T11:10:59.811Z,19.20
2019-05-23T11:13:28.872Z,19.30
2019-05-23T11:15:57.703Z,19.40
2019-05-23T11:18:26.404Z,19.40
2019-05-23T11:20:55.130Z,19.30
2019-05-23T11:23:25.695Z,19.30
2019-05-23T11:25:53.678Z,19.30
2019-05-23T11:28:23.299Z,19.40
2019-05-23T11:30:53.595Z,19.50
2019-05-23T11:33:22.921Z,19.30
2019-05-23T11:35:51.772Z,19.20
2019-05-23T11:38:20.602Z,19.10
2019-05-23T11:40:49.520Z,19.10
2019-05-23T11:43:18.321Z,19.10
2019-05-23T11:45:48.620Z,19.10
2019-05-23T11:48:17.480Z,19.20
2019-05-23T11:50:46.216Z,19.30
2019-05-23T11:53:15.053Z,19.40
2019-05-23T11:55:43.843Z,19.50
2019-05-23T11:58:13.146Z,19.50
2019-05-23T12:00:56.000Z,19.50
2019-05-23T12:03:24.953Z,19.50
2019-05-23T12:05:53.745Z,19.70
2019-05-23T12:08:22.599Z,20.00
2019-05-23T12:10:51.334Z,20.20
2019-05-23T12:13:20.076Z,20.40
2019-05-23T12:15:48.893Z,20.30
2019-05-23T12:18:17.766Z,20.30
2019-05-23T12:20:46.468Z,20.40
2019-05-23T12:23:15.202Z,20.50
2019-05-23T12:25:43.882Z,20.60
2019-05-23T12:28:14.558Z,20.80
2019-05-23T12:30:43.297Z,21.10
2019-05-23T12:33:12.071Z,21.50
2019-05-23T12:35:40.781Z,21.40
2019-05-23T12:38:09.622Z,21.40
2019-05-23T12:40:38.308Z,21.50
2019-05-23T12:43:07.061Z,21.80
2019-05-23T12:45:35.763Z,21.80
2019-05-23T12:48:08.890Z,22.00
2019-05-23T12:50:45.195Z,22.40
2019-05-23T12:53:15.517Z,22.70
2019-05-23T12:55:44.262Z,23.10
2019-05-23T12:58:13.067Z,23.50
2019-05-23T13:00:43.414Z,23.60
2019-05-23T13:03:13.705Z,22.80
2019-05-23T13:05:43.062Z,21.80
2019-05-23T13:08:11.875Z,21.70
2019-05-23T13:10:40.886Z,21.70
2019-05-23T13:13:10.090Z,22.00
2019-05-23T13:15:39.345Z,22.10
2019-05-23T13:18:08.312Z,22.10
2019-05-23T13:20:37.818Z,22.30
2019-05-23T13:23:07.168Z,22.30
2019-05-23T13:25:36.488Z,22.50
2019-05-23T13:28:05.333Z,22.60
2019-05-23T13:30:34.413Z,22.50
2019-05-23T13:33:03.915Z,22.40
2019-05-23T13:35:33.044Z,22.10
2019-05-23T13:38:01.806Z,22.00
2019-05-23T13:40:30.840Z,21.80
2019-05-23T13:42:59.578Z,22.00
2019-05-23T13:45:28.333Z,22.10
2019-05-23T13:47:57.043Z,22.10
2019-05-23T13:50:26.969Z,22.20
2019-05-23T13:52:56.089Z,22.20
2019-05-23T13:55:25.370Z,22.10
2019-05-23T13:57:54.072Z,22.10
2019-05-23T14:00:25.151Z,22.00
2019-05-23T14:02:53.954Z,21.90
2019-05-23T14:05:22.888Z,21.80
2019-05-23T14:07:51.782Z,21.70
2019-05-23T14:10:20.514Z,21.90
2019-05-23T14:12:49.307Z,21.80
2019-05-23T14:15:19.613Z,21.80
2019-05-23T14:17:49.034Z,21.80
2019-05-23T14:20:18.151Z,21.70
2019-05-23T14:23:03.653Z,21.90
2019-05-23T14:25:32.881Z,21.90
2019-05-23T14:28:08.802Z,21.80
2019-05-23T14:30:39.198Z,21.80
2019-05-23T14:33:27.863Z,21.90
2019-05-23T14:35:58.214Z,21.90
2019-05-23T14:38:31.240Z,21.90
2019-05-23T14:40:59.081Z,22.00
2019-05-23T14:43:28.930Z,22.20
2019-05-23T14:46:04.879Z,22.20
2019-05-23T14:48:47.685Z,22.20
2019-05-23T14:51:34.047Z,22.20
2019-05-23T14:54:19.678Z,22.10
2019-05-23T14:56:48.698Z,21.80
2019-05-23T14:59:17.817Z,22.00
2019-05-23T15:01:46.584Z,21.80
2019-05-23T15:04:15.701Z,22.00
2019-05-23T15:06:44.422Z,22.00
2019-05-23T15:09:13.151Z,21.70
2019-05-23T15:11:41.952Z,21.80
2019-05-23T15:14:10.704Z,21.70
2019-05-23T15:16:39.410Z,21.60
2019-05-23T15:19:08.166Z,21.70
2019-05-23T15:21:36.915Z,21.50
2019-05-23T15:24:05.673Z,21.40
2019-05-23T15:26:34.504Z,21.30
2019-05-23T15:29:03.254Z,21.40
2019-05-23T15:31:31.970Z,21.40
2019-05-23T15:34:00.765Z,21.20
2019-05-23T15:36:29.491Z,21.10
2019-05-23T15:39:08.848Z,21.10
2019-05-23T15:41:28.057Z,21.10
2019-05-23T15:43:56.763Z,21.10
2019-05-23T15:46:25.593Z,20.80
2019-05-23T15:48:54.342Z,20.70
2019-05-23T15:51:24.604Z,20.60
2019-05-23T15:54:03.896Z,20.50
2019-05-23T15:56:50.466Z,20.50
2019-05-23T15:59:20.765Z,20.50
2019-05-23T16:02:00.039Z,20.50
2019-05-23T16:04:28.897Z,20.50
2019-05-23T16:06:57.819Z,20.50
2019-05-23T16:09:30.304Z,20.40
2019-05-23T16:11:57.643Z,20.40
2019-05-23T16:14:27.020Z,20.30
2019-05-23T16:16:57.323Z,20.10
2019-05-23T16:19:25.562Z,20.00
2019-05-23T16:21:54.299Z,20.10
2019-05-23T16:24:23.318Z,20.10
2019-05-23T16:26:52.193Z,20.10
2019-05-23T16:29:21.304Z,20.10
2019-05-23T16:31:50.114Z,19.90
2019-05-23T16:34:18.868Z,19.80
2019-05-23T16:36:48.425Z,19.80
2019-05-23T16:39:17.539Z,19.70
2019-05-23T16:41:46.260Z,19.80
2019-05-23T16:44:14.968Z,19.80
2019-05-23T16:46:43.772Z,19.90
2019-05-23T16:49:12.495Z,19.80
2019-05-23T16:51:41.241Z,19.80
2019-05-23T16:54:11.061Z,19.70
2019-05-23T16:56:50.454Z,19.70
2019-05-23T16:59:20.734Z,19.60
2019-05-23T17:02:06.560Z,19.60
2019-05-23T17:04:47.246Z,19.50
2019-05-23T17:07:34.088Z,19.60
2019-05-23T17:10:13.681Z,19.50
2019-05-23T17:12:44.155Z,19.50
2019-05-23T17:15:23.488Z,19.40
2019-05-23T17:18:09.196Z,19.40
2019-05-23T17:20:48.431Z,19.40
2019-05-23T17:23:18.799Z,19.30
2019-05-23T17:25:57.931Z,19.30
2019-05-23T17:28:28.380Z,19.20
2019-05-23T17:31:01.685Z,19.00
2019-05-23T17:33:30.882Z,19.00
2019-05-23T17:35:59.676Z,18.80
2019-05-23T17:38:28.558Z,18.80
2019-05-23T17:40:57.254Z,18.70
2019-05-23T17:43:26.020Z,18.80
2019-05-23T17:45:54.724Z,18.60
2019-05-23T17:48:23.518Z,18.60
2019-05-23T17:50:52.235Z,18.50
2019-05-23T17:53:21.179Z,18.40
2019-05-23T17:55:50.495Z,18.40
2019-05-23T17:58:20.249Z,18.40
2019-05-23T18:00:49.355Z,18.30
2019-05-23T18:03:18.477Z,18.20
2019-05-23T18:05:47.749Z,18.20
2019-05-23T18:08:17.668Z,18.20
2019-05-23T18:10:47.139Z,18.30
2019-05-23T18:13:17.074Z,18.20
2019-05-23T18:15:46.106Z,18.00
2019-05-23T18:18:15.459Z,18.00
2019-05-23T18:20:44.424Z,18.00
2019-05-23T18:23:13.147Z,18.10
2019-05-23T18:25:42.385Z,18.10
2019-05-23T18:28:12.390Z,17.90
2019-05-23T18:30:45.458Z,17.90
2019-05-23T18:33:14.804Z,18.00
2019-05-23T18:35:43.606Z,17.90
2019-05-23T18:38:12.411Z,17.70
2019-05-23T18:40:41.642Z,17.70
2019-05-23T18:43:10.592Z,17.70
2019-05-23T18:45:40.815Z,17.60
2019-05-23T18:48:10.037Z,17.50
2019-05-23T18:50:38.769Z,17.40
2019-05-23T18:53:08.774Z,17.50
2019-05-23T18:55:37.651Z,17.40
2019-05-23T18:58:06.473Z,17.50
2019-05-23T19:00:54.188Z,17.50
2019-05-23T19:03:23.707Z,17.50
2019-05-23T19:05:52.527Z,17.40
2019-05-23T19:08:21.954Z,17.30
2019-05-23T19:10:50.730Z,17.20
2019-05-23T19:13:19.460Z,17.20
2019-05-23T19:15:48.320Z,17.20
2019-05-23T19:18:17.575Z,17.00
2019-05-23T19:20:46.723Z,17.00
2019-05-23T19:23:15.961Z,17.10
2019-05-23T19:25:45.923Z,17.00
2019-05-23T19:28:14.769Z,16.90
2019-05-23T19:30:43.652Z,17.00
2019-05-23T19:33:12.904Z,16.90
2019-05-23T19:35:42.157Z,16.90
2019-05-23T19:38:11.055Z,16.90
2019-05-23T19:40:41.028Z,16.90
2019-05-23T19:43:10.715Z,17.00
2019-05-23T19:45:39.631Z,17.00
2019-05-23T19:48:08.525Z,17.00
2019-05-23T19:50:38.885Z,16.80
2019-05-23T19:53:07.801Z,16.80
2019-05-23T19:55:40.246Z,16.70
2019-05-23T19:58:09.611Z,16.70
2019-05-23T20:00:39.235Z,16.70
2019-05-23T20:03:08.607Z,16.70
2019-05-23T20:05:39.117Z,16.60
2019-05-23T20:08:08.125Z,16.60
2019-05-23T20:10:37.723Z,16.70
2019-05-23T20:13:06.728Z,16.70
2019-05-23T20:15:35.539Z,16.70
2019-05-23T20:18:04.333Z,16.60
2019-05-23T20:20:34.728Z,16.50
2019-05-23T20:23:03.469Z,16.50
2019-05-23T20:25:33.422Z,16.50
2019-05-23T20:28:02.305Z,16.50
2019-05-23T20:30:46.590Z,16.50
2019-05-23T20:33:15.775Z,16.50
2019-05-23T20:35:44.666Z,16.50
2019-05-23T20:38:13.846Z,16.50
2019-05-23T20:40:42.669Z,16.50
2019-05-23T20:43:11.686Z,16.40
2019-05-23T20:45:40.578Z,16.40
2019-05-23T20:48:09.358Z,16.30
2019-05-23T20:50:38.182Z,16.30
2019-05-23T20:53:06.997Z,16.30
2019-05-23T20:55:36.119Z,16.40
2019-05-23T20:58:05.389Z,16.30
2019-05-23T21:00:36.016Z,16.30
2019-05-23T21:03:04.449Z,16.30
2019-05-23T21:05:33.227Z,16.20
2019-05-23T21:08:01.936Z,16.20
2019-05-23T21:10:39.539Z,16.20
2019-05-23T21:13:09.771Z,16.20
2019-05-23T21:15:40.886Z,16.20
2019-05-23T21:18:09.068Z,16.20
2019-05-23T21:20:38.090Z,16.20
2019-05-23T21:23:06.838Z,16.10
2019-05-23T21:25:37.559Z,16.10
2019-05-23T21:28:06.546Z,16.10
2019-05-23T21:30:35.351Z,16.00
2019-05-23T21:33:04.778Z,15.90
2019-05-23T21:35:33.857Z,16.00
2019-05-23T21:38:02.832Z,15.90
2019-05-23T21:40:40.615Z,15.90
2019-05-23T21:43:09.494Z,15.90
2019-05-23T21:45:38.255Z,15.90
2019-05-23T21:48:07.102Z,15.90
2019-05-23T21:50:35.877Z,15.80
2019-05-23T21:53:04.680Z,15.80
2019-05-23T21:55:41.362Z,15.70
2019-05-23T21:58:11.183Z,15.70
2019-05-23T22:01:02.573Z,15.70
2019-05-23T22:03:32.927Z,15.70
2019-05-23T22:06:02.043Z,15.60
2019-05-23T22:08:31.001Z,15.50
2019-05-23T22:10:59.739Z,15.40
2019-05-23T22:13:28.463Z,15.40
2019-05-23T22:16:00.276Z,15.40
2019-05-23T22:18:30.507Z,15.40
2019-05-23T22:20:59.245Z,15.30
2019-05-23T22:23:28.009Z,15.30
2019-05-23T22:25:56.868Z,15.40
2019-05-23T22:28:25.606Z,15.30
2019-05-23T22:30:54.341Z,15.40
2019-05-23T22:33:24.643Z,15.30
2019-05-23T22:35:53.858Z,15.30
2019-05-23T22:38:22.584Z,15.00
2019-05-23T22:40:51.327Z,15.10
2019-05-23T22:43:21.328Z,15.00
2019-05-23T22:45:50.492Z,14.90
2019-05-23T22:48:19.195Z,14.90
2019-05-23T22:50:47.976Z,15.00
2019-05-23T22:53:16.699Z,15.00
2019-05-23T22:55:45.455Z,15.00
2019-05-23T22:58:14.161Z,14.90
2019-05-23T23:00:44.471Z,14.90
2019-05-23T23:03:13.216Z,14.90
2019-05-23T23:05:41.949Z,14.80
2019-05-23T23:08:10.670Z,14.70
2019-05-23T23:10:39.412Z,14.80
2019-05-23T23:13:08.142Z,14.70
2019-05-23T23:15:36.883Z,14.70
2019-05-23T23:18:06.526Z,14.70
2019-05-23T23:20:35.271Z,14.70
2019-05-23T23:23:03.974Z,14.70
2019-05-23T23:25:33.632Z,14.60
2019-05-23T23:28:02.416Z,14.60
2019-05-23T23:30:32.778Z,14.60
2019-05-23T23:33:01.528Z,14.60
2019-05-23T23:35:30.244Z,14.60
2019-05-23T23:37:58.982Z,14.50
2019-05-23T23:40:27.789Z,14.60
2019-05-23T23:42:56.524Z,14.40
2019-05-23T23:45:42.939Z,14.30
2019-05-23T23:48:29.592Z,14.30
2019-05-23T23:51:16.372Z,14.30
2019-05-23T23:54:03.316Z,14.30
2019-05-23T23:56:49.966Z,14.30
